createdAt,value
2019-05-29T00:00:10.196Z,67.89
2019-05-29T00:02:37.132Z,68.37
2019-05-29T00:05:05.932Z,69.15
2019-05-29T00:07:32.987Z,69.60
2019-05-29T00:09:59.690Z,69.68
2019-05-29T00:12:26.401Z,69.40
2019-05-29T00:14:53.397Z,68.40
2019-05-29T00:17:20.112Z,68.21
2019-05-29T00:19:46.804Z,67.55
2019-05-29T00:22:14.510Z,66.95
2019-05-29T00:24:41.423Z,66.33
2019-05-29T00:27:08.171Z,66.19
2019-05-29T00:29:36.870Z,65.89
2019-05-29T00:32:03.595Z,65.86
2019-05-29T00:34:30.283Z,65.50
2019-05-29T00:36:57.031Z,65.81
2019-05-29T00:39:23.741Z,65.97
2019-05-29T00:41:50.484Z,65.84
2019-05-29T00:44:18.644Z,65.73
2019-05-29T00:47:05.693Z,65.53
2019-05-29T00:49:32.402Z,66.06
2019-05-29T00:51:59.213Z,66.73
2019-05-29T00:54:25.925Z,67.16
2019-05-29T00:56:52.631Z,66.90
2019-05-29T00:59:19.341Z,66.56
2019-05-29T01:01:46.324Z,66.89
2019-05-29T01:04:13.608Z,66.64
2019-05-29T01:06:40.657Z,66.99
2019-05-29T01:09:07.406Z,67.07
2019-05-29T01:11:34.113Z,67.19
2019-05-29T01:14:00.871Z,68.27
2019-05-29T01:16:27.599Z,69.04
2019-05-29T01:18:56.431Z,69.78
2019-05-29T01:21:23.165Z,70.06
2019-05-29T01:23:50.505Z,70.04
2019-05-29T01:26:17.311Z,68.92
2019-05-29T01:28:44.239Z,68.47
2019-05-29T01:31:10.981Z,67.59
2019-05-29T01:33:37.713Z,67.63
2019-05-29T01:36:04.754Z,67.83
2019-05-29T01:38:31.486Z,68.94
2019-05-29T01:40:58.204Z,69.85
2019-05-29T01:43:25.279Z,69.55
2019-05-29T01:45:52.003Z,69.34
2019-05-29T01:48:19.579Z,70.56
2019-05-29T01:50:46.390Z,70.37
2019-05-29T01:53:13.469Z,69.55
2019-05-29T01:55:40.200Z,70.22
2019-05-29T01:58:07.659Z,69.95
2019-05-29T02:00:34.380Z,69.40
2019-05-29T02:03:01.143Z,69.15
2019-05-29T02:05:28.273Z,68.65
2019-05-29T02:07:55.343Z,68.35
2019-05-29T02:10:22.240Z,68.99
2019-05-29T02:12:49.182Z,68.84
2019-05-29T02:15:29.536Z,68.40
2019-05-29T02:17:44.556Z,69.09
2019-05-29T02:20:11.399Z,70.27
2019-05-29T02:22:38.412Z,70.77
2019-05-29T02:25:05.283Z,71.29
2019-05-29T02:27:32.022Z,71.37
2019-05-29T02:29:58.803Z,71.34
2019-05-29T02:32:25.868Z,71.24
2019-05-29T02:34:52.711Z,71.53
2019-05-29T02:37:20.152Z,71.82
2019-05-29T02:39:46.939Z,71.52
2019-05-29T02:42:13.642Z,70.86
2019-05-29T02:44:40.342Z,70.13
2019-05-29T02:47:07.335Z,69.57
2019-05-29T02:49:34.042Z,69.16
2019-05-29T02:52:00.768Z,69.63
2019-05-29T02:54:29.429Z,69.57
2019-05-29T02:56:56.226Z,68.98
2019-05-29T02:59:23.630Z,69.57
2019-05-29T03:01:51.582Z,70.27
2019-05-29T03:04:18.285Z,70.48
2019-05-29T03:06:44.988Z,70.30
2019-05-29T03:09:11.705Z,69.67
2019-05-29T03:11:38.415Z,69.47
2019-05-29T03:14:05.137Z,69.15
2019-05-29T03:16:32.828Z,69.06
2019-05-29T03:19:01.694Z,69.88
2019-05-29T03:21:28.902Z,69.90
2019-05-29T03:23:57.028Z,69.73
2019-05-29T03:26:26.444Z,69.49
2019-05-29T03:28:52.352Z,68.88
2019-05-29T03:31:19.082Z,68.63
2019-05-29T03:33:49.762Z,68.54
2019-05-29T03:36:14.461Z,68.61
2019-05-29T03:38:41.147Z,69.03
2019-05-29T03:41:07.859Z,70.12
2019-05-29T03:43:36.094Z,71.04
2019-05-29T03:46:03.308Z,70.76
2019-05-29T03:48:30.559Z,69.79
2019-05-29T03:50:58.594Z,69.73
2019-05-29T03:53:26.885Z,70.33
2019-05-29T03:55:53.919Z,71.10
2019-05-29T03:58:20.626Z,71.32
2019-05-29T04:00:48.857Z,70.87
2019-05-29T04:03:16.249Z,71.47
2019-05-29T04:05:43.007Z,72.12
2019-05-29T04:08:10.063Z,72.07
2019-05-29T04:10:37.921Z,72.13
2019-05-29T04:13:07.554Z,71.67
2019-05-29T04:15:36.641Z,71.10
2019-05-29T04:18:04.127Z,71.50
2019-05-29T04:20:33.595Z,71.57
2019-05-29T04:23:00.310Z,72.03
2019-05-29T04:25:31.305Z,72.27
2019-05-29T04:27:55.665Z,70.58
2019-05-29T04:30:22.402Z,70.76
2019-05-29T04:32:49.118Z,71.46
2019-05-29T04:35:15.852Z,70.71
2019-05-29T04:37:42.562Z,70.60
2019-05-29T04:40:09.290Z,69.93
2019-05-29T04:42:37.644Z,69.88
2019-05-29T04:45:04.843Z,69.65
2019-05-29T04:47:33.140Z,69.39
2019-05-29T04:50:00.096Z,69.70
2019-05-29T04:52:26.821Z,69.38
2019-05-29T04:54:53.527Z,69.61
2019-05-29T04:57:20.249Z,70.21
2019-05-29T04:59:50.263Z,69.87
2019-05-29T05:02:16.959Z,69.88
2019-05-29T05:04:43.685Z,69.31
2019-05-29T05:07:10.385Z,70.34
2019-05-29T05:09:37.572Z,70.02
2019-05-29T05:12:04.580Z,69.31
2019-05-29T05:14:31.574Z,69.15
2019-05-29T05:16:58.503Z,68.95
2019-05-29T05:19:25.222Z,69.00
2019-05-29T05:21:51.927Z,69.63
2019-05-29T05:24:18.650Z,70.12
2019-05-29T05:26:45.383Z,69.92
2019-05-29T05:29:12.249Z,69.42
2019-05-29T05:31:40.657Z,68.61
2019-05-29T05:34:08.122Z,68.83
2019-05-29T05:36:38.885Z,69.07
2019-05-29T05:39:06.216Z,69.47
2019-05-29T05:41:33.069Z,69.77
2019-05-29T05:44:00.149Z,69.15
2019-05-29T05:46:26.883Z,69.30
2019-05-29T05:48:53.708Z,69.50
2019-05-29T05:51:20.426Z,69.97
2019-05-29T05:53:47.270Z,69.54
2019-05-29T05:56:14.107Z,69.54
2019-05-29T05:58:42.282Z,69.56
2019-05-29T06:01:09.371Z,69.27
2019-05-29T06:03:36.190Z,68.98
2019-05-29T06:06:02.968Z,68.90
2019-05-29T06:08:29.655Z,69.32
2019-05-29T06:10:56.503Z,68.72
2019-05-29T06:13:23.215Z,68.41
2019-05-29T06:15:49.961Z,68.63
2019-05-29T06:18:21.589Z,68.08
2019-05-29T06:20:45.696Z,67.80
2019-05-29T06:23:12.408Z,67.77
2019-05-29T06:25:40.707Z,67.58
2019-05-29T06:28:08.188Z,66.53
2019-05-29T06:30:36.621Z,66.80
2019-05-29T06:33:03.672Z,66.78
2019-05-29T06:35:30.412Z,66.15
2019-05-29T06:37:57.162Z,66.46
2019-05-29T06:40:30.978Z,66.33
2019-05-29T06:42:57.771Z,65.91
2019-05-29T06:45:29.995Z,65.68
2019-05-29T06:47:56.750Z,65.05
2019-05-29T06:50:23.471Z,65.16
2019-05-29T06:52:50.305Z,65.10
2019-05-29T06:55:17.027Z,65.22
2019-05-29T06:57:44.531Z,64.98
2019-05-29T07:00:11.228Z,64.25
2019-05-29T07:02:38.596Z,63.89
2019-05-29T07:05:05.962Z,63.39
2019-05-29T07:07:32.653Z,63.17
2019-05-29T07:09:59.381Z,64.17
2019-05-29T07:12:26.231Z,63.86
2019-05-29T07:14:52.934Z,63.97
2019-05-29T07:17:22.064Z,63.95
2019-05-29T07:20:00.726Z,64.27
2019-05-29T07:22:17.428Z,63.36
2019-05-29T07:24:45.029Z,63.38
2019-05-29T07:27:13.629Z,62.92
2019-05-29T07:29:41.166Z,63.61
2019-05-29T07:32:08.158Z,63.59
2019-05-29T07:34:49.648Z,63.01
2019-05-29T07:37:03.820Z,63.12
2019-05-29T07:39:30.624Z,63.10
2019-05-29T07:41:57.395Z,62.90
2019-05-29T07:44:24.103Z,62.17
2019-05-29T07:46:50.817Z,62.83
2019-05-29T07:49:17.566Z,63.08
2019-05-29T07:51:45.047Z,63.42
2019-05-29T07:54:12.825Z,63.70
2019-05-29T07:56:40.371Z,63.31
2019-05-29T07:59:07.471Z,63.88
2019-05-29T08:01:34.186Z,62.69
2019-05-29T08:04:00.915Z,62.46
2019-05-29T08:06:27.640Z,61.35
2019-05-29T08:08:54.368Z,62.43
2019-05-29T08:11:21.304Z,62.07
2019-05-29T08:13:48.143Z,61.49
2019-05-29T08:16:14.981Z,60.74
2019-05-29T08:18:46.132Z,60.18
2019-05-29T08:21:10.573Z,59.04
2019-05-29T08:23:38.277Z,58.84
2019-05-29T08:26:05.396Z,58.63
2019-05-29T08:28:32.251Z,58.50
2019-05-29T08:30:58.963Z,58.45
2019-05-29T08:33:25.809Z,59.16
2019-05-29T08:35:59.965Z,58.22
2019-05-29T08:38:21.619Z,57.32
2019-05-29T08:40:49.498Z,56.87
2019-05-29T08:43:16.762Z,56.13
2019-05-29T08:45:43.547Z,55.48
2019-05-29T08:48:10.288Z,57.13
2019-05-29T08:50:37.048Z,57.58
2019-05-29T08:53:03.812Z,56.21
2019-05-29T08:55:30.532Z,55.38
2019-05-29T08:57:57.298Z,54.91
2019-05-29T09:00:24.378Z,54.82
2019-05-29T09:02:51.284Z,54.70
2019-05-29T09:05:18.206Z,54.88
2019-05-29T09:07:46.423Z,54.03
2019-05-29T09:10:14.043Z,54.00
2019-05-29T09:12:40.818Z,53.69
2019-05-29T09:15:09.603Z,54.07
2019-05-29T09:17:36.732Z,53.56
2019-05-29T09:20:06.860Z,53.30
2019-05-29T09:22:33.581Z,52.10
2019-05-29T09:25:00.302Z,52.19
2019-05-29T09:27:27.051Z,52.17
2019-05-29T09:29:53.736Z,53.29
2019-05-29T09:32:40.756Z,52.91
2019-05-29T09:34:50.039Z,52.87
2019-05-29T09:37:17.426Z,52.14
2019-05-29T09:39:45.404Z,53.14
2019-05-29T09:42:12.424Z,52.44
2019-05-29T09:44:40.213Z,51.51
2019-05-29T09:47:07.118Z,50.99
2019-05-29T09:49:33.815Z,50.29
2019-05-29T09:52:01.016Z,50.44
2019-05-29T09:54:28.928Z,49.81
2019-05-29T09:56:56.846Z,48.89
2019-05-29T09:59:25.968Z,48.36
2019-05-29T10:01:54.092Z,47.84
2019-05-29T10:04:21.291Z,47.78
2019-05-29T10:06:48.006Z,49.96
2019-05-29T10:09:14.729Z,50.92
2019-05-29T10:11:41.475Z,52.04
2019-05-29T10:14:08.274Z,51.96
2019-05-29T10:16:35.867Z,52.61
2019-05-29T10:19:05.820Z,53.63
2019-05-29T10:21:40.264Z,53.41
2019-05-29T10:24:02.292Z,51.71
2019-05-29T10:26:29.999Z,52.61
2019-05-29T10:29:07.975Z,52.92
2019-05-29T10:31:25.565Z,51.98
2019-05-29T10:33:52.456Z,51.09
2019-05-29T10:36:19.121Z,51.03
2019-05-29T10:38:46.492Z,51.38
2019-05-29T10:41:13.648Z,50.23
2019-05-29T10:43:40.621Z,49.38
2019-05-29T10:46:07.364Z,49.38
2019-05-29T10:48:34.246Z,49.80
2019-05-29T10:51:04.818Z,49.70
2019-05-29T10:53:31.614Z,50.09
2019-05-29T10:55:58.356Z,49.40
2019-05-29T10:58:25.119Z,48.83
2019-05-29T11:00:53.229Z,48.70
2019-05-29T11:03:20.330Z,48.14
2019-05-29T11:05:47.552Z,46.99
2019-05-29T11:08:14.875Z,45.61
2019-05-29T11:10:41.718Z,42.50
2019-05-29T11:13:08.484Z,42.21
2019-05-29T11:15:35.851Z,40.86
2019-05-29T11:18:02.683Z,41.98
2019-05-29T11:20:29.396Z,41.40
2019-05-29T11:22:56.282Z,40.88
2019-05-29T11:25:27.912Z,41.06
2019-05-29T11:27:54.939Z,41.02
2019-05-29T11:30:21.632Z,41.16
2019-05-29T11:32:50.919Z,41.07
2019-05-29T11:35:17.956Z,42.08
2019-05-29T11:37:45.148Z,41.36
2019-05-29T11:40:12.916Z,40.42
2019-05-29T11:42:40.163Z,39.69
2019-05-29T11:45:37.906Z,39.85
2019-05-29T11:48:05.435Z,39.98
2019-05-29T11:50:32.318Z,41.45
2019-05-29T11:52:59.059Z,43.07
2019-05-29T11:55:26.297Z,43.42
2019-05-29T11:57:53.792Z,44.12
2019-05-29T12:00:23.695Z,44.01
2019-05-29T12:02:55.805Z,43.85
2019-05-29T12:05:22.872Z,44.26
2019-05-29T12:07:49.589Z,43.95
2019-05-29T12:10:16.463Z,43.20
2019-05-29T12:12:43.321Z,42.84
2019-05-29T12:15:14.836Z,43.52
2019-05-29T12:17:39.072Z,42.74
2019-05-29T12:20:26.421Z,42.59
2019-05-29T12:22:35.147Z,42.12
2019-05-29T12:25:03.002Z,40.92
2019-05-29T12:27:30.040Z,41.13
2019-05-29T12:29:56.857Z,40.24
2019-05-29T12:32:23.844Z,39.99
2019-05-29T12:34:53.479Z,40.17
2019-05-29T12:37:19.327Z,39.41
2019-05-29T12:39:46.060Z,39.02
2019-05-29T12:42:12.799Z,37.12
2019-05-29T12:44:39.885Z,37.21
2019-05-29T12:47:06.693Z,36.00
2019-05-29T12:49:33.617Z,35.67
2019-05-29T12:52:01.902Z,34.64
2019-05-29T12:54:28.970Z,34.05
2019-05-29T12:56:55.835Z,34.24
2019-05-29T12:59:22.590Z,34.24
2019-05-29T13:01:49.315Z,34.22
2019-05-29T13:04:16.081Z,34.17
2019-05-29T13:06:42.798Z,34.37
2019-05-29T13:09:09.619Z,35.78
2019-05-29T13:11:36.327Z,35.81
2019-05-29T13:14:03.077Z,35.18
2019-05-29T13:16:29.807Z,34.54
2019-05-29T13:18:57.018Z,34.22
2019-05-29T13:21:24.266Z,34.26
2019-05-29T13:23:51.072Z,34.34
2019-05-29T13:26:17.836Z,35.16
2019-05-29T13:28:45.062Z,34.31
2019-05-29T13:31:11.774Z,33.02
2019-05-29T13:33:38.731Z,32.60
2019-05-29T13:36:06.717Z,32.21
2019-05-29T13:38:34.086Z,31.12
2019-05-29T13:41:02.312Z,30.14
2019-05-29T13:43:29.413Z,30.88
2019-05-29T13:45:56.333Z,31.41
2019-05-29T13:48:23.584Z,31.22
2019-05-29T13:50:51.066Z,31.62
2019-05-29T13:53:17.868Z,31.99
2019-05-29T13:55:44.540Z,32.21
2019-05-29T13:58:11.265Z,31.20
2019-05-29T14:00:38.023Z,29.84
2019-05-29T14:03:05.037Z,29.60
2019-05-29T14:05:33.967Z,28.54
2019-05-29T14:08:01.128Z,28.27
2019-05-29T14:10:28.268Z,28.61
2019-05-29T14:12:55.050Z,27.88
2019-05-29T14:15:21.768Z,27.74
2019-05-29T14:17:48.550Z,28.36
2019-05-29T14:20:15.913Z,28.48
2019-05-29T14:22:42.638Z,28.00
2019-05-29T14:25:14.298Z,28.15
2019-05-29T14:27:41.667Z,28.90
2019-05-29T14:30:10.303Z,28.58
2019-05-29T14:32:37.296Z,29.67
2019-05-29T14:35:05.602Z,29.63
2019-05-29T14:37:32.779Z,29.95
2019-05-29T14:39:59.566Z,30.06
2019-05-29T14:42:26.304Z,30.80
2019-05-29T14:44:53.041Z,31.03
2019-05-29T14:47:19.748Z,30.98
2019-05-29T14:49:46.482Z,30.62
2019-05-29T14:52:13.445Z,31.51
2019-05-29T14:54:42.132Z,31.65
2019-05-29T14:57:21.600Z,31.50
2019-05-29T14:59:37.926Z,31.79
2019-05-29T15:02:07.544Z,31.86
2019-05-29T15:04:33.361Z,32.54
2019-05-29T15:07:00.415Z,32.81
2019-05-29T15:09:27.141Z,32.65
2019-05-29T15:11:53.845Z,32.64
2019-05-29T15:14:20.560Z,32.80
2019-05-29T15:16:47.282Z,32.41
2019-05-29T15:19:15.244Z,32.30
2019-05-29T15:21:42.481Z,33.36
2019-05-29T15:24:09.519Z,33.82
2019-05-29T15:26:36.441Z,34.09
2019-05-29T15:29:03.615Z,34.27
2019-05-29T15:31:30.364Z,34.14
2019-05-29T15:33:57.104Z,34.85
2019-05-29T15:36:23.966Z,34.68
2019-05-29T15:38:50.701Z,35.35
2019-05-29T15:41:17.419Z,36.23
2019-05-29T15:43:44.187Z,36.21
2019-05-29T15:46:12.137Z,36.07
2019-05-29T15:48:41.085Z,36.52
2019-05-29T15:51:08.810Z,36.58
2019-05-29T15:53:36.081Z,36.50
2019-05-29T15:56:16.985Z,36.50
2019-05-29T15:58:31.661Z,36.73
2019-05-29T16:00:58.838Z,36.63
2019-05-29T16:03:25.545Z,36.43
2019-05-29T16:05:52.355Z,35.96
2019-05-29T16:08:19.363Z,35.47
2019-05-29T16:10:46.139Z,35.75
2019-05-29T16:13:15.045Z,35.97
2019-05-29T16:15:42.459Z,36.01
2019-05-29T16:18:19.849Z,36.27
2019-05-29T16:20:39.809Z,36.50
2019-05-29T16:23:06.510Z,36.44
2019-05-29T16:25:40.232Z,36.48
2019-05-29T16:28:01.874Z,36.50
2019-05-29T16:30:29.421Z,36.55
2019-05-29T16:32:56.239Z,36.47
2019-05-29T16:35:24.112Z,36.95
2019-05-29T16:37:51.411Z,37.45
2019-05-29T16:40:18.354Z,38.26
2019-05-29T16:42:45.054Z,38.90
2019-05-29T16:45:12.225Z,39.42
2019-05-29T16:47:39.442Z,40.30
2019-05-29T16:50:07.750Z,41.50
2019-05-29T16:52:34.602Z,42.26
2019-05-29T16:55:01.451Z,42.89
2019-05-29T16:57:28.939Z,43.15
2019-05-29T16:59:57.373Z,43.44
2019-05-29T17:02:24.118Z,44.44
2019-05-29T17:04:51.296Z,44.60
2019-05-29T17:07:20.144Z,46.88
2019-05-29T17:09:46.849Z,49.78
2019-05-29T17:12:14.664Z,52.06
2019-05-29T17:14:41.489Z,54.07
2019-05-29T17:17:08.373Z,55.74
2019-05-29T17:19:35.142Z,57.22
2019-05-29T17:22:03.168Z,57.45
2019-05-29T17:24:29.877Z,59.68
2019-05-29T17:26:56.933Z,60.09
2019-05-29T17:29:24.950Z,59.37
2019-05-29T17:31:52.375Z,58.91
2019-05-29T17:34:19.099Z,59.48
2019-05-29T17:36:45.814Z,60.62
2019-05-29T17:39:12.743Z,61.13
2019-05-29T17:41:41.109Z,61.17
2019-05-29T17:44:07.882Z,61.41
2019-05-29T17:46:34.593Z,61.83
2019-05-29T17:49:01.304Z,61.41
2019-05-29T17:51:28.157Z,62.39
2019-05-29T17:53:54.920Z,64.37
2019-05-29T17:56:32.275Z,66.20
2019-05-29T17:58:50.277Z,65.79
2019-05-29T18:01:18.201Z,66.74
2019-05-29T18:03:45.141Z,66.21
2019-05-29T18:06:11.839Z,65.60
2019-05-29T18:08:38.574Z,66.38
2019-05-29T18:11:05.277Z,66.18
2019-05-29T18:13:32.034Z,68.69
2019-05-29T18:15:58.794Z,67.21
2019-05-29T18:18:25.802Z,66.13
2019-05-29T18:20:52.745Z,66.73
2019-05-29T18:23:19.964Z,65.44
2019-05-29T18:25:47.226Z,66.15
2019-05-29T18:28:14.340Z,66.20
2019-05-29T18:30:41.080Z,65.53
2019-05-29T18:33:07.841Z,66.05
2019-05-29T18:35:34.582Z,66.37
2019-05-29T18:38:01.361Z,67.46
2019-05-29T18:40:28.432Z,67.62
2019-05-29T18:42:55.348Z,65.36
2019-05-29T18:45:24.312Z,65.23
2019-05-29T18:47:50.863Z,65.87
2019-05-29T18:50:17.610Z,66.22
2019-05-29T18:52:44.649Z,67.02
2019-05-29T18:55:11.481Z,67.58
2019-05-29T18:57:38.343Z,68.04
2019-05-29T19:00:05.201Z,67.38
2019-05-29T19:02:31.950Z,67.23
2019-05-29T19:04:58.783Z,68.04
2019-05-29T19:07:25.801Z,67.20
2019-05-29T19:09:55.015Z,66.55
2019-05-29T19:12:21.813Z,67.18
2019-05-29T19:14:48.462Z,67.12
2019-05-29T19:17:15.558Z,67.27
2019-05-29T19:19:42.220Z,67.51
2019-05-29T19:22:10.081Z,67.50
2019-05-29T19:24:36.859Z,68.77
2019-05-29T19:27:03.807Z,68.93
2019-05-29T19:29:31.171Z,69.84
2019-05-29T19:31:58.512Z,69.86
2019-05-29T19:34:25.327Z,70.23
2019-05-29T19:36:52.053Z,68.84
2019-05-29T19:39:18.895Z,66.93
2019-05-29T19:41:45.721Z,65.58
2019-05-29T19:44:12.838Z,65.75
2019-05-29T19:46:53.092Z,66.07
2019-05-29T19:49:08.297Z,65.90
2019-05-29T19:51:35.510Z,66.43
2019-05-29T19:54:02.405Z,66.33
2019-05-29T19:56:29.696Z,66.81
2019-05-29T19:58:56.374Z,69.90
2019-05-29T20:01:31.695Z,71.03
2019-05-29T20:03:51.748Z,70.28
2019-05-29T20:06:18.833Z,67.36
2019-05-29T20:08:45.549Z,66.56
2019-05-29T20:11:12.615Z,67.24
2019-05-29T20:13:39.315Z,65.97
2019-05-29T20:16:06.067Z,65.36
2019-05-29T20:18:34.072Z,64.80
2019-05-29T20:21:00.998Z,64.96
2019-05-29T20:23:28.601Z,65.28
2019-05-29T20:25:55.428Z,66.99
2019-05-29T20:28:22.167Z,70.05
2019-05-29T20:30:48.913Z,71.74
2019-05-29T20:33:15.648Z,73.66
2019-05-29T20:35:43.173Z,74.44
2019-05-29T20:38:10.084Z,74.95
2019-05-29T20:40:37.347Z,75.32
2019-05-29T20:43:04.275Z,75.71
2019-05-29T20:45:33.678Z,75.85
2019-05-29T20:48:00.928Z,75.97
2019-05-29T20:50:27.687Z,75.55
2019-05-29T20:52:56.002Z,76.15
2019-05-29T20:55:22.712Z,76.40
2019-05-29T20:57:50.806Z,75.91
2019-05-29T21:00:18.721Z,76.67
2019-05-29T21:02:45.438Z,75.71
2019-05-29T21:05:12.193Z,75.85
2019-05-29T21:07:38.950Z,75.21
2019-05-29T21:10:06.380Z,75.81
2019-05-29T21:12:37.507Z,75.60
2019-05-29T21:15:05.596Z,75.56
2019-05-29T21:17:33.602Z,75.82
2019-05-29T21:20:00.472Z,75.69
2019-05-29T21:22:27.224Z,75.95
2019-05-29T21:25:02.654Z,75.99
2019-05-29T21:27:23.352Z,76.03
2019-05-29T21:29:50.104Z,76.70
2019-05-29T21:32:17.165Z,75.93
2019-05-29T21:34:44.035Z,75.05
2019-05-29T21:37:10.705Z,74.74
2019-05-29T21:39:38.335Z,74.54
2019-05-29T21:42:05.450Z,74.87
2019-05-29T21:44:32.305Z,74.96
2019-05-29T21:47:00.071Z,74.96
2019-05-29T21:49:26.896Z,75.67
2019-05-29T21:51:53.745Z,76.44
2019-05-29T21:54:20.473Z,76.43
2019-05-29T21:56:47.905Z,76.56
2019-05-29T21:59:14.854Z,76.83
2019-05-29T22:01:42.081Z,76.40
2019-05-29T22:04:09.178Z,75.91
2019-05-29T22:06:35.934Z,76.17
2019-05-29T22:09:04.316Z,76.14
2019-05-29T22:11:31.012Z,76.22
2019-05-29T22:13:58.535Z,75.97
2019-05-29T22:16:25.342Z,76.26
2019-05-29T22:18:52.790Z,75.84
2019-05-29T22:21:20.224Z,76.42
2019-05-29T22:23:46.932Z,76.28
2019-05-29T22:26:13.750Z,76.02
2019-05-29T22:28:40.550Z,75.87
2019-05-29T22:31:07.261Z,76.27
2019-05-29T22:33:34.248Z,75.82
2019-05-29T22:36:01.698Z,75.86
2019-05-29T22:38:31.826Z,75.71
2019-05-29T22:40:59.689Z,76.20
2019-05-29T22:43:26.403Z,75.84
2019-05-29T22:45:53.607Z,76.41
2019-05-29T22:48:20.452Z,76.20
2019-05-29T22:50:47.190Z,75.99
2019-05-29T22:53:14.215Z,75.78
2019-05-29T22:55:40.940Z,75.65
2019-05-29T22:58:07.630Z,76.05
2019-05-29T23:00:34.445Z,75.53
2019-05-29T23:03:02.420Z,76.00
2019-05-29T23:05:29.196Z,75.96
2019-05-29T23:07:56.130Z,76.27
2019-05-29T23:10:22.937Z,76.55
2019-05-29T23:12:49.782Z,76.27
2019-05-29T23:15:16.842Z,75.73
2019-05-29T23:17:43.584Z,75.69
2019-05-29T23:20:10.300Z,75.79
2019-05-29T23:22:37.003Z,76.29
2019-05-29T23:25:03.829Z,76.25
2019-05-29T23:27:33.722Z,76.06
2019-05-29T23:30:01.079Z,75.47
2019-05-29T23:32:28.107Z,75.55
2019-05-29T23:34:55.095Z,75.99
2019-05-29T23:37:21.930Z,76.32
2019-05-29T23:39:48.958Z,76.50
2019-05-29T23:42:15.653Z,75.56
2019-05-29T23:44:42.347Z,76.93
2019-05-29T23:47:09.374Z,76.82
2019-05-29T23:49:36.101Z,76.92
2019-05-29T23:52:04.523Z,77.00
2019-05-29T23:54:31.425Z,76.84
2019-05-29T23:56:58.152Z,76.28
2019-05-29T23:59:24.997Z,76.93
